This is the latest recevied weather packets stored in our database for station/object K4JJE. If no packets are shown the sender has not sent any weather packets the latest 10 day(s).
| Time | Temp. | Humidity | Pressure | Rain* | Wind** | Luminosity | Snow |
|---|---|---|---|---|---|---|---|
| 1778264417 | 20.56° C | 45% | 1015.2 hPa | 0 mm | - | - | - |
| 1778261057 | 20° C | 47% | 1015.7 hPa | 0 mm | - | - | - |
| 1778260217 | 20° C | 47% | 1016.1 hPa | 0 mm | - | - | - |
| 1778259797 | 19.44° C | 48% | 1016.1 hPa | 0 mm | - | - | - |
| 1778252657 | 16.67° C | 60% | 1017.4 hPa | 0 mm | - | - | - |
| 1778251397 | 15.56° C | 62% | 1017.6 hPa | 0 mm | - | - | - |
| 1778248877 | 12.78° C | 79% | 1017.7 hPa | 0 mm | - | - | - |
| 1778248037 | 11.67° C | 84% | 1017.9 hPa | 0 mm | - | - | - |
| 1778247617 | 11.67° C | 86% | 1017.9 hPa | 0 mm | - | - | - |
| 1778244677 | 9.44° C | 95% | 1018.1 hPa | 0 mm | - | - | - |
| 1778244257 | 8.89° C | 95% | 1018 hPa | 0 mm | - | - | - |
| 1778242996 | 7.78° C | 95% | 1017.9 hPa | 0 mm | - | - | - |
| 1778241316 | 5.56° C | 95% | 1017.5 hPa | 0 mm | - | - | - |
| 1778239637 | 5° C | 95% | 1017 hPa | 0 mm | - | - | - |
| 1778232076 | 5.56° C | 95% | 1015.3 hPa | 0 mm | - | - | - |
| 1778229136 | 6.11° C | 95% | 1015.2 hPa | 0 mm | - | - | - |
| 1778227877 | 6.11° C | 94% | 1015.4 hPa | 0 mm | - | - | - |
| 1778224516 | 6.67° C | 95% | 1015.3 hPa | 0 mm | - | - | - |
| 1778223256 | 6.67° C | 94% | 1015.2 hPa | 0 mm | - | - | - |
| 1778221576 | 6.67° C | 94% | 1015.1 hPa | 0 mm | - | - | - |
| 1778221156 | 6.67° C | 94% | 1015 hPa | 0 mm | - | - | - |
| 1778208976 | 8.89° C | 93% | 1015 hPa | 0 mm | - | - | - |
| 1778208136 | 8.89° C | 93% | 1014.9 hPa | 0 mm | - | - | - |
| 1778206876 | 9.44° C | 92% | 1014.8 hPa | 0 mm | - | - | - |
| 1778206456 | 9.44° C | 92% | 1014.8 hPa | 0 mm | - | - | - |
* Rain latest hour (hover to see other rain measurements)
** Current wind speed in m/s (hover to see current wind gust speed)